Ana Sayfa
METAR-TAF:

METAR-TAF

Havaalanları :

Allentown, Pensilvanya, Amerika Birleşik Devletleri

Enlem: 40-39-03N, Boylam: 075-26-57W, yükseklik: 120 m

Güncel hava durumu gözlemi

Rapor saat 10:51 UTC de 54 dakika önce yapıldı.
Rüzgar batıdan 3 kt
Sıcaklık 19°C
Nem 83%
Basınç 1018 hPa
Görüş mesafesi: 16.1 km
Açık gökyüzü

METAR: KABE 261051Z 27003KT 10SM CLR 19/16 A3005 RMK AO2 SLP174 T01890156

Saat: 07:45 (11:45 UTC)

Tahmin

Rapor saat 11:24 UTC de 21 dakika önce yapıldı.
Ayın 26'si saat 12 UTC'den ayın 27'si saat 12 UTC'ye kadar geçerli Tahmin
Rüzgar değişken yönden 3 kt
Görüş mesafesi: 10 km
25000 ft yükseklikte parçalı bulutlu
Ayın 26'si saat 1600 UTC'den
Rüzgar batıdan 6 kt
Görüş mesafesi: 10 km
5000 ft yükseklikte az bulutlu
Ayın 27'si saat 0000 UTC'den
Rüzgar değişken yönden 3 kt
Görüş mesafesi: 10 km
5000 ft yükseklikte parçalı bulutlu

TAF: KABE 261124Z 2612/2712 VRB03KT P6SM SCT250 FM261600 26006KT P6SM FEW050 FM270000 VRB03KT P6SM SCT050

4.000'den fazla havaalanı için hava durumu gözlemleri ve tahminleri (METAR ve TAF raporları).

Kullanılabilir istasyonlar harita üzerinde sarı ve kırmızı noktalarla gösterilir.

İstasyonun adını görmek için fareyi noktanın üzerinde gezdirin.

Sonrasında hava gözlem ve tahminlerini görmek için tıklayın.

Haritayı değiştirmek için: yaklaştırmak için siyah artı işaretli yeşil düğmeye ve uzaklaştırmak için de eksi işaretli düğmeye hızla tıklayın; bitişik haritalar için yeşil okları kullanın.


METAR-TAF: